createdAt,value
2023-02-05T05:00:58.815Z,1.42
2023-02-05T05:03:26.768Z,1.42
2023-02-05T05:05:54.143Z,1.63
2023-02-05T05:08:20.850Z,1.45
2023-02-05T05:10:47.858Z,1.30
2023-02-05T05:13:15.105Z,1.50
2023-02-05T05:15:41.826Z,1.50
2023-02-05T05:18:08.705Z,1.50
2023-02-05T05:20:35.399Z,1.40
2023-02-05T05:23:02.960Z,1.73
2023-02-05T05:25:30.006Z,1.48
2023-02-05T05:27:56.961Z,1.50
2023-02-05T05:30:24.166Z,1.63
2023-02-05T05:32:51.183Z,1.50
2023-02-05T05:35:18.101Z,1.30
2023-02-05T05:37:45.345Z,1.20
2023-02-05T05:40:31.162Z,1.67
2023-02-05T05:43:16.985Z,1.27
2023-02-05T05:45:44.320Z,1.40
2023-02-05T05:48:11.378Z,1.55
2023-02-05T05:50:38.080Z,1.33
2023-02-05T05:53:05.386Z,1.35
2023-02-05T05:55:34.485Z,1.40
2023-02-05T05:58:01.694Z,1.30
2023-02-05T06:00:28.604Z,1.45
2023-02-05T06:02:55.395Z,1.60
2023-02-05T06:05:22.353Z,1.50
2023-02-05T06:07:49.588Z,1.48
2023-02-05T06:10:16.285Z,1.52
2023-02-05T06:12:42.951Z,1.40
2023-02-05T06:15:10.269Z,1.42
2023-02-05T06:17:37.232Z,1.50
2023-02-05T06:20:05.599Z,1.23
2023-02-05T06:22:32.670Z,1.30
2023-02-05T06:24:59.498Z,1.25
2023-02-05T06:27:26.480Z,1.40
2023-02-05T06:29:53.338Z,1.30
2023-02-05T06:32:21.723Z,1.40
2023-02-05T06:34:49.116Z,1.35
2023-02-05T06:37:16.125Z,1.45
2023-02-05T06:39:43.265Z,1.45
2023-02-05T06:42:10.310Z,1.30
2023-02-05T06:44:37.626Z,1.52
2023-02-05T06:47:04.323Z,1.30
2023-02-05T06:49:30.958Z,1.30
2023-02-05T06:51:58.111Z,1.42
2023-02-05T06:54:25.239Z,1.40
2023-02-05T06:56:52.417Z,1.20
2023-02-05T06:59:19.076Z,1.27
2023-02-05T07:01:47.163Z,1.48
2023-02-05T07:04:13.761Z,1.30
2023-02-05T07:06:40.852Z,1.35
2023-02-05T07:09:08.395Z,1.23
2023-02-05T07:11:35.037Z,1.35
2023-02-05T07:14:02.524Z,1.50
2023-02-05T07:16:31.951Z,1.50
2023-02-05T07:18:58.928Z,1.75
2023-02-05T07:21:26.355Z,2.10
2023-02-05T07:23:53.123Z,1.80
2023-02-05T07:26:19.754Z,1.60
2023-02-05T07:28:46.811Z,1.70
2023-02-05T07:31:16.218Z,1.90
2023-02-05T07:33:43.257Z,1.70
2023-02-05T07:36:11.593Z,1.77
2023-02-05T07:38:38.538Z,1.60
2023-02-05T07:41:09.151Z,1.40
2023-02-05T07:43:35.863Z,1.50
2023-02-05T07:46:04.850Z,1.60
2023-02-05T07:48:31.984Z,1.50
2023-02-05T07:50:58.832Z,1.50
2023-02-05T07:53:25.542Z,1.60
2023-02-05T07:55:52.227Z,1.65
2023-02-05T07:58:18.987Z,1.48
2023-02-05T08:00:45.827Z,1.50
2023-02-05T08:03:12.735Z,1.58
2023-02-05T08:05:39.891Z,1.60
2023-02-05T08:08:07.339Z,1.30
2023-02-05T08:10:34.545Z,1.58
2023-02-05T08:13:01.650Z,1.80
2023-02-05T08:15:29.775Z,1.60
2023-02-05T08:17:57.313Z,1.60
2023-02-05T08:20:23.980Z,1.38
2023-02-05T08:22:50.684Z,1.50
2023-02-05T08:25:17.762Z,1.55
2023-02-05T08:27:46.112Z,1.63
2023-02-05T08:30:15.775Z,1.50
2023-02-05T08:32:42.902Z,1.60
2023-02-05T08:35:09.937Z,1.50
2023-02-05T08:37:36.587Z,1.67
2023-02-05T08:40:04.064Z,2.17
2023-02-05T08:42:31.077Z,2.17
2023-02-05T08:44:59.430Z,1.95
2023-02-05T08:47:26.547Z,1.92
2023-02-05T08:49:54.077Z,2.10
2023-02-05T08:52:20.793Z,1.98
2023-02-05T08:54:48.215Z,1.90
2023-02-05T08:57:16.501Z,1.60
2023-02-05T08:59:44.154Z,2.00
2023-02-05T09:02:14.765Z,2.05
2023-02-05T09:04:41.892Z,1.85
2023-02-05T09:07:08.921Z,1.77
2023-02-05T09:09:36.924Z,1.42
2023-02-05T09:12:04.442Z,2.00
2023-02-05T09:14:37.766Z,1.80
2023-02-05T09:17:05.246Z,1.73
2023-02-05T09:19:36.017Z,1.90
2023-02-05T09:22:03.014Z,1.98
2023-02-05T09:24:32.196Z,1.90
2023-02-05T09:26:59.339Z,1.80
2023-02-05T09:29:26.476Z,2.00
2023-02-05T09:31:55.689Z,2.20
2023-02-05T09:34:22.450Z,2.08
2023-02-05T09:36:49.794Z,2.30
2023-02-05T09:39:44.056Z,2.10
2023-02-05T09:42:09.491Z,2.20
2023-02-05T09:47:14.906Z,2.40
2023-02-05T09:49:47.637Z,2.30
2023-02-05T09:52:22.669Z,2.15
2023-02-05T09:54:52.578Z,2.28
2023-02-05T09:57:27.548Z,2.00
2023-02-05T09:59:54.911Z,2.03
2023-02-05T10:02:27.324Z,2.10
2023-02-05T10:04:55.143Z,2.00
2023-02-05T10:07:50.730Z,2.13
2023-02-05T10:10:23.826Z,2.03
2023-02-05T10:13:24.513Z,2.10
2023-02-05T10:16:02.762Z,2.00
2023-02-05T10:18:37.991Z,1.98
2023-02-05T10:21:17.188Z,2.05
2023-02-05T10:24:21.497Z,1.98
2023-02-05T10:27:00.487Z,1.95
2023-02-05T10:29:39.050Z,1.80
2023-02-05T10:32:20.353Z,1.98
2023-02-05T10:34:59.798Z,2.30
2023-02-05T10:37:46.411Z,2.00
2023-02-05T10:40:17.787Z,1.90
2023-02-05T10:42:49.908Z,1.92
2023-02-05T10:45:27.091Z,2.23
2023-02-05T10:48:02.740Z,2.05
2023-02-05T10:50:45.372Z,2.00
2023-02-05T10:53:12.510Z,2.03
2023-02-05T10:55:39.304Z,1.90
2023-02-05T10:58:31.650Z,1.80
2023-02-05T11:01:00.240Z,2.33
2023-02-05T11:03:26.941Z,2.13
2023-02-05T11:05:56.298Z,2.70
2023-02-05T11:08:33.652Z,4.07
2023-02-05T11:11:00.476Z,4.95
2023-02-05T11:13:28.323Z,4.25
2023-02-05T11:16:06.656Z,3.83
2023-02-05T11:18:36.737Z,3.60
2023-02-05T11:21:04.115Z,3.70
2023-02-05T11:23:39.763Z,3.78
2023-02-05T11:26:28.810Z,3.50
2023-02-05T11:28:56.111Z,3.10
2023-02-05T11:31:26.885Z,2.95
2023-02-05T11:34:08.656Z,3.40
2023-02-05T11:36:40.205Z,8.52
2023-02-05T11:39:07.059Z,4.10
2023-02-05T11:41:48.504Z,4.22
2023-02-05T11:44:21.998Z,3.50
2023-02-05T11:46:49.402Z,3.20
2023-02-05T11:49:21.416Z,2.90
2023-02-05T11:51:49.771Z,3.38
2023-02-05T11:54:21.361Z,2.80
2023-02-05T11:57:28.406Z,3.10
2023-02-05T12:00:03.827Z,3.10
2023-02-05T12:02:33.255Z,3.08
2023-02-05T12:05:24.268Z,3.33
2023-02-05T12:08:09.257Z,3.38
2023-02-05T12:10:54.040Z,2.80
2023-02-05T12:13:43.621Z,2.67
2023-02-05T12:16:48.829Z,3.15
2023-02-05T12:19:19.859Z,2.80
2023-02-05T12:22:08.391Z,2.70
2023-02-05T12:24:54.003Z,2.88
2023-02-05T12:27:42.570Z,3.08
2023-02-05T12:30:37.947Z,3.10
2023-02-05T12:33:24.670Z,3.17
2023-02-05T12:36:00.678Z,2.78
2023-02-05T12:38:36.869Z,2.80
2023-02-05T12:41:06.489Z,2.90
2023-02-05T12:43:41.094Z,2.65
2023-02-05T12:46:21.007Z,2.97
2023-02-05T12:49:00.694Z,2.92
2023-02-05T12:51:59.734Z,3.15
2023-02-05T12:54:49.229Z,5.43
2023-02-05T12:57:20.754Z,3.10
2023-02-05T12:59:56.044Z,3.95
2023-02-05T13:02:37.159Z,4.93
2023-02-05T13:05:28.640Z,9.02
2023-02-05T13:08:06.263Z,5.22
2023-02-05T13:10:51.013Z,9.80
2023-02-05T13:13:22.186Z,7.10
2023-02-05T13:16:01.992Z,7.63
2023-02-05T13:18:37.440Z,8.18
2023-02-05T13:21:24.730Z,7.80
2023-02-05T13:24:39.954Z,7.20
2023-02-05T13:27:43.639Z,7.00
2023-02-05T13:32:43.725Z,6.70
2023-02-05T13:35:10.697Z,6.00
2023-02-05T13:37:52.121Z,6.50
2023-02-05T13:40:52.516Z,5.90
2023-02-05T13:43:52.850Z,5.90
2023-02-05T13:47:08.649Z,5.22
2023-02-05T13:49:58.828Z,5.28
2023-02-05T13:52:53.285Z,4.85
2023-02-05T13:55:41.461Z,5.28
2023-02-05T13:58:29.671Z,4.95
2023-02-05T14:01:07.194Z,4.90
2023-02-05T14:03:38.527Z,4.70
2023-02-05T14:06:16.363Z,15.98
2023-02-05T14:08:44.137Z,12.65
2023-02-05T14:11:11.793Z,8.93
2023-02-05T14:13:38.665Z,8.55
2023-02-05T14:16:23.940Z,8.18
2023-02-05T14:18:51.385Z,7.65
2023-02-05T14:21:30.523Z,6.60
2023-02-05T14:23:59.868Z,7.90
2023-02-05T14:26:54.856Z,6.45
2023-02-05T14:29:43.686Z,5.95
2023-02-05T14:32:34.216Z,6.25
2023-02-05T14:35:01.684Z,6.82
2023-02-05T14:37:42.754Z,6.20
2023-02-05T14:40:20.221Z,5.75
2023-02-05T14:42:46.828Z,6.00
2023-02-05T14:45:17.380Z,6.03
2023-02-05T14:47:47.802Z,5.68
2023-02-05T14:50:32.572Z,5.47
2023-02-05T14:53:00.782Z,5.90
2023-02-05T14:55:40.711Z,5.07
2023-02-05T14:58:11.160Z,5.20
2023-02-05T15:00:39.364Z,4.78
2023-02-05T15:03:06.295Z,5.07
2023-02-05T15:05:45.573Z,5.50
2023-02-05T15:08:21.606Z,5.30
2023-02-05T15:11:00.179Z,5.30
2023-02-05T15:13:26.898Z,4.78
2023-02-05T15:16:12.118Z,5.60
2023-02-05T15:18:49.241Z,4.50
2023-02-05T15:21:42.499Z,4.93
2023-02-05T15:24:20.147Z,4.85
2023-02-05T15:27:14.045Z,4.50
2023-02-05T15:29:42.638Z,4.97
2023-02-05T15:32:22.355Z,4.53
2023-02-05T15:34:51.676Z,4.35
2023-02-05T15:37:36.913Z,4.65
2023-02-05T15:40:09.943Z,4.68
2023-02-05T15:42:41.130Z,5.30
2023-02-05T15:45:27.611Z,5.35
2023-02-05T15:48:06.221Z,6.13
2023-02-05T15:50:37.965Z,5.65
2023-02-05T15:53:08.027Z,6.05
2023-02-05T15:55:34.992Z,7.20
2023-02-05T15:58:06.305Z,6.50
2023-02-05T16:00:34.372Z,6.38
2023-02-05T16:03:02.449Z,6.30
2023-02-05T16:05:30.365Z,6.45
2023-02-05T16:08:02.185Z,5.65
2023-02-05T16:10:33.925Z,6.22
2023-02-05T16:13:14.637Z,6.57
2023-02-05T16:15:45.785Z,5.90
2023-02-05T16:18:25.637Z,5.28
2023-02-05T16:20:54.366Z,5.40
2023-02-05T16:23:29.192Z,6.10
2023-02-05T16:25:58.102Z,5.35
2023-02-05T16:28:40.452Z,5.57
2023-02-05T16:31:07.694Z,5.63
2023-02-05T16:34:22.534Z,5.93
2023-02-05T16:36:50.484Z,5.53
2023-02-05T16:39:30.291Z,5.35
2023-02-05T16:42:08.612Z,4.80
2023-02-05T16:44:37.642Z,4.38
2023-02-05T16:47:14.556Z,4.45
2023-02-05T16:49:42.169Z,4.28
2023-02-05T16:52:35.689Z,4.80
2023-02-05T16:57:56.164Z,4.57
2023-02-05T17:00:27.753Z,4.70
2023-02-05T17:02:58.149Z,4.93
2023-02-05T17:05:32.119Z,4.20
2023-02-05T17:08:04.440Z,4.07
2023-02-05T17:10:31.631Z,4.15
2023-02-05T17:13:01.139Z,4.93
2023-02-05T17:15:30.475Z,4.35
2023-02-05T17:17:59.321Z,3.90
2023-02-05T17:20:27.936Z,4.18
2023-02-05T17:23:00.125Z,4.05
2023-02-05T17:25:31.947Z,4.00
2023-02-05T17:27:59.155Z,3.97
2023-02-05T17:30:27.018Z,4.18
2023-02-05T17:32:55.262Z,3.90
2023-02-05T17:35:22.806Z,3.53
2023-02-05T17:37:55.893Z,4.03
2023-02-05T17:40:23.243Z,4.38
2023-02-05T17:42:50.080Z,3.72
2023-02-05T17:45:23.990Z,3.97
2023-02-05T17:47:50.821Z,3.72
2023-02-05T17:50:17.718Z,3.50
2023-02-05T17:52:45.472Z,4.25
2023-02-05T17:55:14.619Z,3.95
2023-02-05T17:57:43.710Z,3.45
2023-02-05T18:00:15.546Z,3.53
2023-02-05T18:02:42.969Z,3.72
2023-02-05T18:05:11.950Z,3.80
2023-02-05T18:08:01.373Z,4.07
2023-02-05T18:10:33.440Z,3.78
2023-02-05T18:13:00.159Z,3.77
2023-02-05T18:15:27.944Z,3.60
2023-02-05T18:17:54.714Z,3.65
2023-02-05T18:20:21.871Z,3.83
2023-02-05T18:22:49.236Z,3.28
2023-02-05T18:25:16.860Z,3.67
2023-02-05T18:27:52.005Z,3.38
2023-02-05T18:30:19.270Z,3.45
2023-02-05T18:32:49.722Z,3.42
2023-02-05T18:35:20.165Z,3.60
2023-02-05T18:37:49.585Z,3.60
2023-02-05T18:40:17.199Z,3.47
2023-02-05T18:42:47.282Z,3.40
2023-02-05T18:45:14.119Z,3.50
2023-02-05T18:47:41.248Z,3.63
2023-02-05T18:50:10.254Z,3.88
2023-02-05T18:52:37.649Z,3.80
2023-02-05T18:55:06.102Z,3.30
2023-02-05T18:57:33.530Z,3.40
2023-02-05T19:00:01.378Z,3.92
2023-02-05T19:02:28.974Z,3.95
2023-02-05T19:04:59.701Z,4.20
2023-02-05T19:07:29.115Z,3.55
2023-02-05T19:09:59.474Z,4.10
2023-02-05T19:12:29.172Z,3.67
2023-02-05T19:15:05.523Z,4.03
2023-02-05T19:17:36.522Z,3.67
2023-02-05T19:20:08.300Z,3.40
2023-02-05T19:22:35.379Z,3.65
2023-02-05T19:25:02.759Z,3.88
2023-02-05T19:27:29.847Z,4.03
2023-02-05T19:29:56.906Z,3.42
2023-02-05T19:32:24.353Z,3.70
2023-02-05T19:34:51.670Z,3.85
2023-02-05T19:37:19.368Z,3.40
2023-02-05T19:39:46.869Z,3.50
2023-02-05T19:42:18.787Z,3.53
2023-02-05T19:44:46.584Z,3.45
2023-02-05T19:47:17.093Z,3.47
2023-02-05T19:49:46.373Z,3.55
2023-02-05T19:52:13.982Z,3.17
2023-02-05T19:54:41.376Z,3.05
2023-02-05T19:57:08.435Z,3.35
2023-02-05T19:59:37.209Z,3.38
2023-02-05T20:02:05.513Z,2.95
2023-02-05T20:04:32.788Z,3.50
2023-02-05T20:07:00.685Z,2.90
2023-02-05T20:09:28.824Z,2.80
2023-02-05T20:11:59.391Z,3.72
2023-02-05T20:14:27.001Z,3.47
2023-02-05T20:16:54.065Z,3.30
2023-02-05T20:19:21.075Z,2.80
2023-02-05T20:21:48.698Z,3.15
2023-02-05T20:24:17.227Z,2.92
2023-02-05T20:26:45.290Z,3.33
2023-02-05T20:29:32.132Z,2.92
2023-02-05T20:32:02.052Z,3.42
2023-02-05T20:34:35.331Z,2.90
2023-02-05T20:37:06.100Z,3.00
2023-02-05T20:39:34.958Z,3.08
2023-02-05T20:42:02.176Z,2.85
2023-02-05T20:44:30.172Z,3.00
2023-02-05T20:46:57.320Z,2.90
2023-02-05T20:49:25.391Z,2.83
2023-02-05T20:51:53.565Z,2.78
2023-02-05T20:54:22.334Z,2.95
2023-02-05T20:56:51.181Z,2.60
2023-02-05T20:59:18.337Z,2.90
2023-02-05T21:01:45.294Z,2.90
2023-02-05T21:04:12.809Z,2.50
2023-02-05T21:06:40.065Z,2.50
2023-02-05T21:09:08.710Z,2.58
2023-02-05T21:11:35.968Z,2.60
2023-02-05T21:14:06.059Z,2.67
2023-02-05T21:16:36.921Z,2.42
2023-02-05T21:19:06.859Z,2.67
2023-02-05T21:21:35.446Z,2.70
2023-02-05T21:24:07.726Z,2.92
2023-02-05T21:26:39.384Z,2.55
2023-02-05T21:29:13.170Z,2.30
2023-02-05T21:31:42.028Z,2.65
2023-02-05T21:34:11.664Z,2.55
2023-02-05T21:36:39.157Z,2.72
2023-02-05T21:39:06.281Z,3.03
2023-02-05T21:41:33.234Z,2.40
2023-02-05T21:44:02.935Z,2.70
2023-02-05T21:46:29.951Z,2.67
2023-02-05T21:48:57.937Z,2.47
2023-02-05T21:51:27.588Z,2.60
2023-02-05T21:53:57.498Z,2.60
2023-02-05T21:59:15.696Z,2.30
2023-02-05T22:01:42.617Z,2.40
2023-02-05T22:04:14.540Z,2.90
2023-02-05T22:06:44.242Z,2.45
2023-02-05T22:09:13.076Z,2.38
2023-02-05T22:11:40.443Z,2.50
2023-02-05T22:14:07.399Z,2.53
2023-02-05T22:16:34.316Z,2.63
2023-02-05T22:19:01.197Z,2.67
2023-02-05T22:21:33.011Z,2.15
2023-02-05T22:24:00.597Z,2.25
2023-02-05T22:26:29.397Z,2.33
2023-02-05T22:28:59.465Z,2.25
